Time;durP1;ratioP1;P1;durP2;ratioP2;P2;SDS_P1;SDS_P2;PMS_P1;PMS_P2;Temp;Humidity;BMP_temperature;BMP_pressure;BME280_temperature;BME280_humidity;BME280_pressure;Samples;Min_cycle;Max_cycle;Signal;HPM_P1;HPM_P2
2022/06/22 00:01:05;;;;;;;5.20;3.80;;;;;;;14.16;44.59;96797.34;110221;1247;59688;-74
2022/06/22 00:03:35;;;;;;;6.10;3.30;;;;;;;14.14;44.56;96800.86;110053;1247;70990;-67
2022/06/22 00:06:04;;;;;;;3.80;3.20;;;;;;;14.11;44.53;96802.02;110056;1250;68546;-71
2022/06/22 00:08:37;;;;;;;3.00;2.10;;;;;;;14.07;44.68;96802.46;110142;1247;69097;-72
2022/06/22 00:11:14;;;;;;;3.40;2.20;;;;;;;14.05;44.60;96801.42;110002;1250;59696;-71
2022/06/22 00:13:50;;;;;;;1.80;1.60;;;;;;;14.00;44.68;96806.42;110184;1247;59704;-66
2022/06/22 00:16:26;;;;;;;2.50;1.80;;;;;;;13.98;44.68;96808.38;109946;1250;71361;-72
2022/06/22 00:18:57;;;;;;;3.40;1.80;;;;;;;13.97;44.99;96809.88;109995;1249;67865;-71
2022/06/22 00:21:40;;;;;;;2.20;1.90;;;;;;;13.93;44.72;96818.48;110155;1247;68498;-73
2022/06/22 00:24:21;;;;;;;3.50;2.00;;;;;;;13.88;45.06;96813.05;110141;1247;59804;-76
2022/06/22 00:26:59;;;;;;;3.00;1.50;;;;;;;13.84;45.04;96812.88;110201;1247;59681;-74
2022/06/22 00:29:37;;;;;;;3.00;1.70;;;;;;;13.80;45.22;96818.90;110156;1247;71462;-73
2022/06/22 00:32:24;;;;;;;3.10;1.80;;;;;;;13.75;45.32;96818.48;110151;1247;68555;-67
2022/06/22 00:34:54;;;;;;;1.90;1.50;;;;;;;13.68;45.57;96812.42;110231;1246;68607;-72
2022/06/22 00:37:31;;;;;;;2.30;1.70;;;;;;;13.65;45.63;96806.24;110010;1248;60155;-68
2022/06/22 00:40:14;;;;;;;2.40;1.70;;;;;;;13.61;45.91;96806.07;110190;1248;59702;-75
2022/06/22 00:42:50;;;;;;;2.20;1.70;;;;;;;13.57;45.89;96803.31;109996;1247;71355;-70
2022/06/22 00:45:27;;;;;;;3.20;1.80;;;;;;;13.55;45.93;96809.31;109927;1250;67711;-66
2022/06/22 00:48:03;;;;;;;2.20;1.50;;;;;;;13.52;46.03;96810.80;109919;1250;69234;-70
2022/06/22 00:50:46;;;;;;;2.10;1.60;;;;;;;13.50;46.02;96807.47;110166;1247;59739;-66
2022/06/22 00:53:39;;;;;;;1.80;1.60;;;;;;;13.47;46.41;96812.64;109977;1250;59698;-70
2022/06/22 00:56:08;;;;;;;1.30;1.20;;;;;;;13.43;46.37;96814.82;110166;1247;71621;-72
2022/06/22 00:59:05;;;;;;;1.70;1.50;;;;;;;13.40;46.42;96820.35;110162;1247;67736;-68
2022/06/22 01:01:51;;;;;;;2.00;1.60;;;;;;;13.34;46.77;96832.98;110154;1248;67807;-75
2022/06/22 01:04:25;;;;;;;2.20;1.60;;;;;;;13.29;47.29;96832.08;110189;1248;59693;-72
2022/06/22 01:07:08;;;;;;;2.30;2.00;;;;;;;13.26;47.46;96830.08;110228;1247;59702;-74
2022/06/22 01:09:54;;;;;;;3.70;1.70;;;;;;;13.22;47.44;96822.33;110185;1247;70772;-75
2022/06/22 01:12:42;;;;;;;1.60;1.50;;;;;;;13.18;47.78;96827.40;110174;1249;67790;-77
2022/06/22 01:15:20;;;;;;;2.80;1.40;;;;;;;13.14;47.97;96827.09;110016;1250;69402;-71
2022/06/22 01:17:57;;;;;;;2.60;1.60;;;;;;;13.11;47.95;96834.54;110183;1247;59698;-72
2022/06/22 01:21:09;;;;;;;2.90;1.60;;;;;;;13.07;48.37;96836.84;109942;1250;59661;-68
2022/06/22 01:23:48;;;;;;;2.00;1.80;;;;;;;13.03;48.60;96831.30;110194;1248;71415;-73
2022/06/22 01:26:36;;;;;;;2.90;1.80;;;;;;;13.00;48.81;96831.90;110154;1248;67838;-69
2022/06/22 01:29:23;;;;;;;1.80;1.70;;;;;;;12.98;49.00;96829.98;110150;1247;69448;-76
2022/06/22 01:32:04;;;;;;;3.70;1.90;;;;;;;12.93;49.14;96826.60;109931;1250;59680;-69
2022/06/22 01:34:42;;;;;;;3.10;1.80;;;;;;;12.89;49.46;96831.54;110168;1247;59675;-73
2022/06/22 01:37:20;;;;;;;4.00;1.80;;;;;;;12.86;49.59;96833.20;109842;1247;70668;-73
2022/06/22 01:40:06;;;;;;;2.10;1.70;;;;;;;12.85;49.60;96845.89;109865;1250;67928;-76
2022/06/22 01:43:04;;;;;;;2.30;1.70;;;;;;;12.82;49.84;96853.44;110165;1248;69249;-69
2022/06/22 01:45:40;;;;;;;2.30;2.00;;;;;;;12.80;50.06;96853.83;109840;1250;59760;-73
2022/06/22 01:48:17;;;;;;;2.70;1.80;;;;;;;12.78;50.30;96857.30;110158;1248;59677;-69
2022/06/22 01:51:12;;;;;;;2.20;2.00;;;;;;;12.75;50.26;96850.91;109974;1250;70751;-77
2022/06/22 01:54:12;;;;;;;2.70;1.90;;;;;;;12.71;50.76;96854.10;110260;1247;67922;-76
2022/06/22 01:56:53;;;;;;;2.00;1.90;;;;;;;12.69;50.96;96851.27;110151;1248;67617;-75
2022/06/22 01:59:44;;;;;;;3.90;2.00;;;;;;;12.69;50.86;96853.94;110199;1247;59744;-78
2022/06/22 02:02:25;;;;;;;2.50;1.80;;;;;;;12.65;51.06;96855.66;110217;1247;59680;-66
2022/06/22 02:05:14;;;;;;;3.00;1.50;;;;;;;12.62;51.43;96857.01;110007;1250;70622;-74
2022/06/22 02:08:08;;;;;;;2.30;1.90;;;;;;;12.59;51.50;96857.50;110003;1247;67659;-72
2022/06/22 02:10:59;;;;;;;1.90;1.70;;;;;;;12.53;51.60;96855.70;110139;1247;68722;-76
2022/06/22 02:13:41;;;;;;;2.40;1.80;;;;;;;12.47;52.05;96851.20;110243;1247;59682;-77
2022/06/22 02:16:40;;;;;;;2.40;2.00;;;;;;;12.43;52.18;96842.51;110198;1247;59686;-76
2022/06/22 02:19:14;;;;;;;2.70;1.30;;;;;;;12.39;52.00;96835.63;110083;1247;71533;-77
2022/06/22 02:21:55;;;;;;;2.00;1.60;;;;;;;12.34;52.16;96831.73;110048;1248;68578;-78
2022/06/22 02:24:32;;;;;;;2.00;1.40;;;;;;;12.28;52.08;96831.26;110179;1247;69369;-78
2022/06/22 02:27:04;;;;;;;1.90;1.70;;;;;;;12.22;52.26;96827.39;109885;1249;59849;-78
2022/06/22 02:29:58;;;;;;;2.40;1.50;;;;;;;12.17;51.68;96823.98;110248;1247;60087;-75
2022/06/22 02:32:35;;;;;;;2.20;1.80;;;;;;;12.11;52.84;96826.27;110002;1250;71551;-79
2022/06/22 02:35:07;;;;;;;2.00;1.80;;;;;;;12.07;52.64;96819.31;109948;1250;68667;-76
2022/06/22 02:37:46;;;;;;;3.60;2.20;;;;;;;12.04;53.03;96823.00;109920;1250;69415;-72
2022/06/22 02:40:22;;;;;;;3.90;1.90;;;;;;;12.02;53.35;96843.67;109936;1250;59744;-71
2022/06/22 02:45:44;;;;;;;2.70;1.90;;;;;;;11.97;54.34;96849.84;109951;1250;70727;-76
2022/06/22 02:48:30;;;;;;;2.50;2.00;;;;;;;11.93;54.49;96841.09;109774;1251;68119;-70
2022/06/22 02:51:11;;;;;;;2.50;2.30;;;;;;;11.90;54.49;96840.14;110015;1250;69285;-76
2022/06/22 02:53:43;;;;;;;2.60;2.30;;;;;;;11.87;54.72;96840.43;109995;1250;59742;-72
2022/06/22 02:56:23;;;;;;;2.60;2.00;;;;;;;11.83;54.91;96843.39;110121;1249;59757;-75
2022/06/22 02:58:52;;;;;;;3.60;2.00;;;;;;;11.80;55.28;96840.34;109903;1250;70633;-74
2022/06/22 03:01:26;;;;;;;3.20;2.50;;;;;;;11.78;54.99;96834.15;109842;1250;68584;-76
2022/06/22 03:03:59;;;;;;;3.90;2.00;;;;;;;11.78;55.29;96836.61;109993;1250;69345;-77
2022/06/22 03:06:41;;;;;;;3.00;1.90;;;;;;;11.77;55.71;96830.67;110025;1249;59675;-74
2022/06/22 03:09:11;;;;;;;3.10;2.20;;;;;;;11.79;55.66;96823.82;110036;1250;59676;-76
2022/06/22 03:11:45;;;;;;;3.20;2.00;;;;;;;11.80;55.87;96825.77;109954;1250;71648;-77
2022/06/22 03:14:20;;;;;;;2.00;1.80;;;;;;;11.82;55.76;96837.18;109992;1250;69225;-77
2022/06/22 03:16:58;;;;;;;3.50;1.70;;;;;;;11.85;55.01;96837.84;109937;1249;68611;-76
2022/06/22 03:19:42;;;;;;;2.60;2.00;;;;;;;11.86;55.84;96836.85;110001;1249;59824;-78
2022/06/22 03:22:35;;;;;;;4.10;2.40;;;;;;;11.87;56.09;96837.11;109756;1250;59752;-73
2022/06/22 03:25:17;;;;;;;3.10;2.80;;;;;;;11.92;56.04;96840.88;109971;1250;70649;-76
2022/06/22 03:27:54;;;;;;;2.50;2.10;;;;;;;11.95;56.26;96843.58;109924;1250;68244;-75
2022/06/22 03:30:28;;;;;;;2.60;1.90;;;;;;;11.96;56.43;96846.55;109963;1250;68620;-78
2022/06/22 03:33:08;;;;;;;2.60;2.30;;;;;;;12.02;56.12;96853.73;109886;1250;59765;-74
2022/06/22 03:35:47;;;;;;;2.50;1.90;;;;;;;12.09;56.06;96852.66;110040;1250;59667;-74
2022/06/22 03:38:32;;;;;;;2.10;1.90;;;;;;;12.14;55.37;96857.41;110050;1249;70729;-74
2022/06/22 03:41:08;;;;;;;3.00;2.00;;;;;;;12.19;55.85;96859.21;109856;1250;68413;-74
2022/06/22 03:43:55;;;;;;;2.20;2.00;;;;;;;12.25;55.63;96863.14;109929;1250;68889;-77
2022/06/22 03:46:43;;;;;;;2.80;2.00;;;;;;;12.30;55.99;96862.33;109893;1250;59694;-73
2022/06/22 03:49:38;;;;;;;2.60;1.80;;;;;;;12.36;55.33;96868.96;109995;1250;59689;-75
2022/06/22 03:52:16;;;;;;;2.90;2.40;;;;;;;12.42;55.60;96867.91;109866;1249;70899;-81
2022/06/22 03:54:51;;;;;;;2.20;2.00;;;;;;;12.48;55.95;96866.82;109975;1250;67787;-80
2022/06/22 03:57:25;;;;;;;3.30;2.10;;;;;;;12.54;55.80;96866.27;109839;1250;69399;-81
2022/06/22 03:59:56;;;;;;;2.70;1.70;;;;;;;12.61;55.93;96862.20;110130;1250;60124;-77
2022/06/22 04:02:28;;;;;;;2.50;2.00;;;;;;;12.66;55.59;96864.34;109963;1250;59677;-78
2022/06/22 04:04:59;;;;;;;1.70;1.50;;;;;;;12.72;55.06;96868.52;109914;1250;71435;-78
2022/06/22 04:07:36;;;;;;;2.70;2.50;;;;;;;12.80;54.90;96863.25;109900;1250;67859;-78
2022/06/22 04:10:17;;;;;;;4.30;1.80;;;;;;;12.90;54.28;96871.34;110059;1247;68548;-79
2022/06/22 04:12:48;;;;;;;3.30;2.30;;;;;;;12.98;54.43;96875.77;110057;1247;59738;-77
2022/06/22 04:15:34;;;;;;;1.60;1.50;;;;;;;13.07;54.53;96875.98;110157;1250;59682;-78
2022/06/22 04:18:20;;;;;;;2.10;1.60;;;;;;;13.18;54.54;96872.57;109896;1250;70756;-76
2022/06/22 04:20:58;;;;;;;2.90;2.00;;;;;;;13.28;53.63;96867.98;109849;1250;66996;-78
2022/06/22 04:23:34;;;;;;;3.00;2.50;;;;;;;13.38;54.26;96874.98;109931;1250;69381;-78
2022/06/22 04:26:34;;;;;;;2.20;1.60;;;;;;;13.47;54.23;96877.59;110162;1248;59690;-77
2022/06/22 04:29:11;;;;;;;2.10;1.90;;;;;;;13.59;54.02;96879.82;109877;1250;59659;-78
2022/06/22 04:31:51;;;;;;;3.00;2.40;;;;;;;13.67;53.64;96876.92;110088;1249;70807;-73
2022/06/22 04:34:47;;;;;;;2.50;2.10;;;;;;;13.79;53.49;96880.89;110006;1250;68141;-78
2022/06/22 04:37:31;;;;;;;1.80;1.50;;;;;;;13.93;53.50;96891.86;109900;1250;69442;-77
2022/06/22 04:40:31;;;;;;;2.80;2.40;;;;;;;14.01;53.00;96898.95;109848;1250;59692;-71
2022/06/22 04:43:04;;;;;;;2.30;2.00;;;;;;;14.04;52.97;96899.04;109961;1250;59701;-71
2022/06/22 04:45:38;;;;;;;2.30;2.00;;;;;;;14.16;52.54;96903.16;109955;1250;70632;-69
2022/06/22 04:48:29;;;;;;;3.20;2.00;;;;;;;14.23;52.69;96904.76;109988;1250;67787;-78
2022/06/22 04:51:04;;;;;;;3.30;1.80;;;;;;;14.30;52.32;96903.09;109837;1250;68557;-76
2022/06/22 04:53:41;;;;;;;2.50;2.30;;;;;;;14.39;51.95;96912.72;109865;1250;59772;-78
2022/06/22 04:56:14;;;;;;;3.30;2.10;;;;;;;14.45;52.06;96919.20;109807;1251;59766;-67
2022/06/22 04:58:51;;;;;;;3.90;2.10;;;;;;;14.52;52.35;96914.52;109911;1250;70752;-71
2022/06/22 05:01:28;;;;;;;2.30;1.80;;;;;;;14.64;51.60;96913.61;109957;1250;68621;-77
2022/06/22 05:04:04;;;;;;;2.30;1.90;;;;;;;14.77;51.47;96904.84;110056;1249;69445;-71
2022/06/22 05:06:48;;;;;;;2.40;1.70;;;;;;;14.84;51.38;96908.35;109906;1250;59707;-72
2022/06/22 05:09:50;;;;;;;3.30;1.60;;;;;;;15.12;50.88;96913.27;110028;1250;59709;-77
2022/06/22 05:12:24;;;;;;;2.70;1.80;;;;;;;15.46;49.83;96921.14;109902;1249;71848;-76
2022/06/22 05:14:56;;;;;;;2.80;2.10;;;;;;;16.03;49.45;96923.87;110047;1250;68652;-70
2022/06/22 05:17:34;;;;;;;3.40;2.00;;;;;;;16.50;48.22;96923.18;110000;1250;70061;-75
2022/06/22 05:20:14;;;;;;;2.70;1.60;;;;;;;16.97;47.22;96922.31;109953;1250;59719;-72
2022/06/22 05:22:45;;;;;;;1.80;1.70;;;;;;;17.23;45.97;96921.42;109959;1250;59683;-77
2022/06/22 05:25:15;;;;;;;3.30;1.80;;;;;;;17.30;45.62;96916.17;109966;1250;71644;-76
2022/06/22 05:27:54;;;;;;;4.00;2.00;;;;;;;17.58;45.17;96920.48;109843;1250;68593;-75
2022/06/22 05:30:25;;;;;;;4.70;2.00;;;;;;;17.53;44.80;96922.88;109897;1250;69410;-74
2022/06/22 05:33:02;;;;;;;1.70;1.50;;;;;;;17.42;45.05;96926.67;109866;1250;59769;-75
2022/06/22 05:35:39;;;;;;;3.40;2.00;;;;;;;17.02;45.72;96932.00;110165;1250;59627;-78
2022/06/22 05:38:10;;;;;;;3.60;1.80;;;;;;;17.01;46.36;96934.73;110018;1250;72166;-78
2022/06/22 05:40:40;;;;;;;2.00;1.80;;;;;;;16.97;46.11;96938.73;109955;1250;68666;-70
2022/06/22 05:43:09;;;;;;;2.80;1.80;;;;;;;16.79;46.62;96927.55;109951;1250;68771;-73
2022/06/22 05:45:50;;;;;;;2.30;2.00;;;;;;;16.79;46.43;96925.92;110028;1249;59700;-73
2022/06/22 05:48:23;;;;;;;3.30;1.80;;;;;;;16.80;46.42;96927.77;110156;1249;59665;-78
2022/06/22 05:51:06;;;;;;;3.20;1.80;;;;;;;16.80;46.50;96932.52;109893;1250;72144;-76
2022/06/22 05:53:44;;;;;;;2.00;1.80;;;;;;;16.70;46.34;96928.46;109895;1250;68543;-77
2022/06/22 05:56:39;;;;;;;2.50;1.70;;;;;;;16.64;46.84;96919.30;109888;1248;69428;-73
2022/06/22 05:59:34;;;;;;;2.00;1.80;;;;;;;16.83;46.70;96924.33;109974;1250;59751;-77
2022/06/22 06:02:44;;;;;;;2.50;1.80;;;;;;;16.94;46.21;96922.59;109975;1250;59672;-76
2022/06/22 06:05:17;;;;;;;2.40;1.80;;;;;;;17.04;46.08;96924.71;109944;1250;70647;-77
2022/06/22 06:07:59;;;;;;;4.40;1.90;;;;;;;17.14;45.89;96932.85;109855;1250;68392;-72
2022/06/22 06:10:35;;;;;;;2.90;1.90;;;;;;;17.22;46.10;96933.34;110050;1250;69869;-74
2022/06/22 06:13:19;;;;;;;3.30;1.80;;;;;;;17.25;45.77;96929.19;109912;1250;59837;-74
2022/06/22 06:15:53;;;;;;;4.80;2.00;;;;;;;17.46;46.26;96924.98;109862;1250;59701;-80
2022/06/22 06:18:35;;;;;;;1.80;1.40;;;;;;;17.71;45.59;96915.35;109850;1250;71554;-79
2022/06/22 06:21:15;;;;;;;2.80;1.90;;;;;;;17.67;44.72;96924.98;109779;1250;68580;-80
2022/06/22 06:23:53;;;;;;;2.20;1.70;;;;;;;17.87;44.75;96935.06;110047;1249;69959;-79
2022/06/22 06:29:35;;;;;;;2.40;1.90;;;;;;;18.19;43.80;96943.38;109955;1250;59683;-81
2022/06/22 06:32:25;;;;;;;2.30;1.60;;;;;;;18.41;43.34;96939.20;109967;1250;72240;-78
2022/06/22 06:35:20;;;;;;;2.70;1.60;;;;;;;18.75;43.15;96948.05;110095;1250;67622;-77
2022/06/22 06:37:55;;;;;;;4.30;2.20;;;;;;;19.27;42.26;96943.35;109797;1250;69527;-81
2022/06/22 06:40:38;;;;;;;2.50;1.60;;;;;;;19.74;41.60;96944.72;110102;1250;59686;-73
2022/06/22 06:43:49;;;;;;;4.10;1.90;;;;;;;20.24;40.16;96935.46;109914;1250;59698;-80
2022/06/22 06:46:21;;;;;;;3.30;2.00;;;;;;;20.47;38.74;96930.92;109939;1250;70614;-73
2022/06/22 06:49:11;;;;;;;3.30;1.80;;;;;;;20.35;39.20;96929.52;109910;1250;68414;-73
2022/06/22 06:51:52;;;;;;;4.50;2.30;;;;;;;19.87;40.05;96927.91;109905;1250;69509;-78
2022/06/22 06:54:30;;;;;;;1.80;1.50;;;;;;;19.57;40.95;96926.73;109831;1250;60138;-77
2022/06/22 06:57:11;;;;;;;4.90;2.00;;;;;;;19.82;39.69;96927.26;110148;1249;59662;-74
2022/06/22 06:59:42;;;;;;;2.80;1.60;;;;;;;19.65;40.14;96918.77;110118;1248;71568;-72
2022/06/22 07:02:17;;;;;;;2.30;1.60;;;;;;;20.39;39.41;96922.88;110110;1250;67810;-69
2022/06/22 07:04:47;;;;;;;1.60;1.40;;;;;;;20.88;37.49;96931.86;109878;1250;68841;-75
2022/06/22 07:07:28;;;;;;;;;;;;;;;20.78;37.14;96930.56;109864;1250;59754;-77
2022/06/22 07:10:02;;;;;;;4.10;2.00;;;;;;;20.18;38.49;96923.27;109903;1250;59631;-70
2022/06/22 07:12:44;;;;;;;2.90;1.70;;;;;;;20.59;38.66;96916.80;110001;1249;70845;-75
2022/06/22 07:15:26;;;;;;;2.20;1.70;;;;;;;21.16;37.58;96918.77;109877;1250;68278;-78
2022/06/22 07:18:00;;;;;;;4.40;1.90;;;;;;;21.47;36.44;96914.25;109800;1251;70099;-74
2022/06/22 07:20:37;;;;;;;1.80;1.60;;;;;;;21.81;36.32;96910.31;109993;1250;59671;-73
2022/06/22 07:23:12;;;;;;;3.00;1.80;;;;;;;21.59;36.94;96914.34;109829;1250;59741;-71
2022/06/22 07:25:46;;;;;;;2.70;1.70;;;;;;;22.03;36.34;96911.39;109860;1250;70803;-77
2022/06/22 07:28:25;;;;;;;2.20;1.80;;;;;;;22.02;36.29;96910.80;109377;1250;758544;-74
2022/06/22 07:31:34;;;;;;;3.30;2.20;;;;;;;22.38;35.85;96916.60;109829;1250;69462;-74
2022/06/22 07:34:19;;;;;;;3.00;1.80;;;;;;;22.68;35.20;96912.66;109501;1255;59767;-73
2022/06/22 07:36:55;;;;;;;2.70;1.70;;;;;;;22.85;35.07;96917.23;109461;1256;59669;-71
2022/06/22 07:39:42;;;;;;;4.30;1.80;;;;;;;23.42;33.98;96917.77;109390;1256;71507;-73
2022/06/22 07:42:12;;;;;;;2.40;1.80;;;;;;;23.92;33.31;96913.30;109532;1256;68487;-68
2022/06/22 07:44:42;;;;;;;2.70;1.70;;;;;;;24.16;33.61;96920.71;109553;1255;69637;-82
2022/06/22 07:47:36;;;;;;;3.20;1.80;;;;;;;24.52;32.60;96926.84;109412;1256;59794;-80
2022/06/22 07:50:23;;;;;;;2.50;1.60;;;;;;;24.66;32.85;96938.46;109504;1256;59712;-75
2022/06/22 07:53:02;;;;;;;1.70;1.50;;;;;;;24.99;31.24;96937.00;109412;1256;70859;-74
2022/06/22 07:55:44;;;;;;;2.00;1.80;;;;;;;25.08;31.56;96927.04;109399;1256;67887;-73
2022/06/22 07:58:22;;;;;;;3.50;1.70;;;;;;;24.47;31.72;96923.06;109521;1255;68896;-81
2022/06/22 08:00:57;;;;;;;1.60;1.40;;;;;;;23.88;32.26;96926.45;109538;1256;59672;-80
2022/06/22 08:03:48;;;;;;;2.60;1.80;;;;;;;24.20;32.52;96929.13;109532;1255;59759;-77
2022/06/22 08:06:28;;;;;;;4.30;1.40;;;;;;;23.81;32.10;96930.02;109474;1256;71562;-80
2022/06/22 08:09:07;;;;;;;2.00;1.60;;;;;;;23.41;33.02;96936.51;109639;1253;67933;-81
2022/06/22 08:11:39;;;;;;;2.40;1.80;;;;;;;23.47;32.91;96930.81;110082;1250;68671;-80
2022/06/22 08:14:21;;;;;;;1.50;1.40;;;;;;;24.03;31.58;96934.05;109970;1250;59650;-80
2022/06/22 08:17:00;;;;;;;3.20;1.40;;;;;;;24.66;31.59;96935.17;110160;1250;59692;-78
2022/06/22 08:19:32;;;;;;;2.30;1.50;;;;;;;23.83;32.20;96947.86;110072;1250;70803;-77
2022/06/22 08:22:06;;;;;;;2.10;1.70;;;;;;;23.92;31.95;96952.27;109824;1250;69266;-81
2022/06/22 08:24:40;;;;;;;2.20;1.60;;;;;;;24.14;32.41;96946.77;110112;1249;70120;-77
2022/06/22 08:27:15;;;;;;;1.90;1.40;;;;;;;24.36;32.05;96942.66;109956;1250;59767;-77
2022/06/22 08:29:48;;;;;;;3.40;1.40;;;;;;;24.17;31.90;96947.73;110169;1250;59657;-80
2022/06/22 08:32:28;;;;;;;1.40;1.20;;;;;;;24.30;31.92;96954.14;110177;1250;71495;-79
2022/06/22 08:35:09;;;;;;;2.00;1.30;;;;;;;24.38;31.38;96939.83;109965;1251;68593;-82
2022/06/22 08:37:44;;;;;;;1.60;1.30;;;;;;;24.44;30.87;96935.58;110055;1250;68061;-80
2022/06/22 08:40:25;;;;;;;1.60;1.20;;;;;;;24.49;31.33;96941.61;110262;1250;59685;-79
2022/06/22 08:43:19;;;;;;;1.80;1.20;;;;;;;24.46;30.45;96939.98;110173;1250;59655;-82
2022/06/22 08:45:50;;;;;;;3.60;1.60;;;;;;;24.32;30.24;96939.77;110153;1250;70783;-69
2022/06/22 08:48:32;;;;;;;2.10;1.20;;;;;;;24.65;30.78;96942.70;110190;1250;69153;-74
2022/06/22 08:51:07;;;;;;;2.80;1.70;;;;;;;25.01;29.42;96943.73;110152;1249;69425;-78
2022/06/22 08:53:58;;;;;;;1.00;0.90;;;;;;;25.35;29.19;96937.73;110116;1250;59738;-72
2022/06/22 08:56:40;;;;;;;1.50;1.10;;;;;;;25.82;28.65;96942.76;109949;1250;59635;-74
2022/06/22 08:59:28;;;;;;;1.90;1.30;;;;;;;26.04;28.11;96944.18;110146;1249;71648;-71
2022/06/22 09:02:30;;;;;;;1.70;1.30;;;;;;;26.27;27.70;96938.84;110140;1250;67908;-78
2022/06/22 09:05:15;;;;;;;1.30;1.20;;;;;;;26.50;27.84;96945.90;110173;1250;69060;-69
2022/06/22 09:08:08;;;;;;;1.30;1.20;;;;;;;26.27;27.25;96937.42;110133;1250;59754;-80
2022/06/22 09:10:59;;;;;;;2.00;1.10;;;;;;;26.18;27.52;96938.35;109978;1250;59738;-78
2022/06/22 09:13:51;;;;;;;1.50;1.10;;;;;;;26.07;26.94;96941.59;110138;1250;70773;-68
2022/06/22 09:16:42;;;;;;;1.50;1.10;;;;;;;26.09;27.16;96933.85;110146;1250;68069;-77
2022/06/22 09:19:34;;;;;;;1.70;1.10;;;;;;;25.66;27.12;96938.21;110110;1250;68941;-75
2022/06/22 09:22:31;;;;;;;1.70;1.10;;;;;;;25.41;27.87;96957.38;109782;1252;59752;-73
2022/06/22 09:25:25;;;;;;;1.70;1.20;;;;;;;25.65;28.90;96957.16;109947;1250;59700;-71
2022/06/22 09:27:58;;;;;;;1.80;1.10;;;;;;;26.03;27.75;96951.72;110191;1250;70782;-71
2022/06/22 09:30:51;;;;;;;1.40;1.30;;;;;;;26.13;27.36;96948.91;110116;1250;68746;-74
2022/06/22 09:33:56;;;;;;;2.10;1.00;;;;;;;26.44;26.76;96946.91;110096;1250;69548;-71
2022/06/22 09:36:24;;;;;;;1.50;1.20;;;;;;;26.73;26.59;96953.59;110066;1250;59683;-80
2022/06/22 09:39:14;;;;;;;1.50;1.20;;;;;;;26.82;26.23;96951.05;110154;1250;59611;-75
2022/06/22 09:42:26;;;;;;;1.80;1.10;;;;;;;26.79;26.52;96942.71;110169;1250;70813;-77
2022/06/22 09:45:09;;;;;;;1.60;1.20;;;;;;;26.67;25.73;96945.17;110193;1250;68537;-76
2022/06/22 09:47:44;;;;;;;2.70;1.20;;;;;;;26.34;26.20;96939.36;110182;1250;69450;-76
2022/06/22 09:50:35;;;;;;;1.50;1.30;;;;;;;26.16;27.16;96930.79;110133;1250;59796;-74
2022/06/22 09:53:17;;;;;;;1.80;1.20;;;;;;;26.00;27.35;96923.66;110184;1250;59753;-76
2022/06/22 09:56:23;;;;;;;1.00;0.90;;;;;;;25.60;26.89;96933.74;110095;1250;72237;-71
2022/06/22 09:59:07;;;;;;;2.40;1.20;;;;;;;25.16;27.44;96932.10;109934;1250;68981;-71
2022/06/22 10:02:17;;;;;;;2.50;1.10;;;;;;;24.84;27.22;96925.61;110019;1250;69701;-74
2022/06/22 10:04:55;;;;;;;2.90;1.20;;;;;;;24.95;28.00;96929.79;110126;1250;59714;-76
2022/06/22 10:07:33;;;;;;;1.60;1.20;;;;;;;24.99;27.25;96914.42;110167;1250;59711;-70
2022/06/22 10:10:06;;;;;;;1.90;1.10;;;;;;;24.84;27.54;96924.85;110174;1250;70774;-71
2022/06/22 10:13:00;;;;;;;2.40;1.10;;;;;;;24.77;27.94;96922.05;110141;1250;67684;-77
2022/06/22 10:15:59;;;;;;;1.80;1.10;;;;;;;24.81;27.79;96912.82;110177;1250;69432;-81
2022/06/22 10:18:52;;;;;;;1.40;1.30;;;;;;;24.72;28.59;96915.25;110019;1250;59676;-80
2022/06/22 10:21:31;;;;;;;1.50;1.10;;;;;;;24.56;27.14;96911.96;110016;1250;59613;-80
2022/06/22 10:24:18;;;;;;;1.60;1.20;;;;;;;24.50;27.33;96911.40;109992;1251;71553;-71
2022/06/22 10:26:53;;;;;;;2.00;1.00;;;;;;;24.68;28.40;96909.92;110146;1251;67836;-74
2022/06/22 10:29:33;;;;;;;2.80;1.00;;;;;;;25.01;27.99;96908.92;110169;1249;69409;-73
2022/06/22 10:32:40;;;;;;;1.30;1.20;;;;;;;24.97;27.82;96906.70;110148;1251;59714;-77
2022/06/22 10:35:24;;;;;;;1.70;1.40;;;;;;;25.01;27.81;96899.11;109901;1251;59635;-79
2022/06/22 10:38:16;;;;;;;3.20;1.50;;;;;;;24.97;28.28;96906.13;110180;1248;70739;-75
2022/06/22 10:47:17;;;;;;;1.80;1.30;;;;;;;24.51;29.18;96904.20;110240;1247;59765;-77
2022/06/22 10:50:11;;;;;;;1.70;1.00;;;;;;;24.96;29.49;96904.80;110276;1247;59670;-82
2022/06/22 10:53:09;;;;;;;1.30;1.20;;;;;;;25.44;27.80;96898.77;110014;1248;70651;-76
2022/06/22 10:56:01;;;;;;;1.30;1.20;;;;;;;25.71;27.44;96891.77;110236;1250;69248;-71
2022/06/22 10:58:40;;;;;;;2.00;1.50;;;;;;;25.24;26.76;96888.23;110203;1249;68836;-70
2022/06/22 11:01:27;;;;;;;2.70;1.40;;;;;;;25.32;26.26;96893.91;110166;1247;59710;-76
2022/06/22 11:04:36;;;;;;;1.70;1.30;;;;;;;25.13;26.28;96895.08;110176;1250;59694;-73
2022/06/22 11:07:38;;;;;;;2.00;1.60;;;;;;;24.31;27.49;96896.59;110164;1248;70723;-73
2022/06/22 11:10:10;;;;;;;2.30;1.50;;;;;;;24.42;27.96;96887.42;110145;1250;67791;-66
2022/06/22 11:12:57;;;;;;;2.20;1.20;;;;;;;24.59;27.93;96896.55;110159;1248;69465;-76
2022/06/22 11:15:47;;;;;;;2.90;1.50;;;;;;;25.12;27.47;96898.46;110181;1248;59787;-70
2022/06/22 11:18:24;;;;;;;1.80;1.30;;;;;;;24.66;27.20;96892.99;110217;1247;59653;-79
2022/06/22 11:21:20;;;;;;;1.60;1.40;;;;;;;25.15;27.39;96893.39;110193;1247;72187;-78
2022/06/22 11:24:13;;;;;;;2.20;1.40;;;;;;;25.57;27.73;96894.11;110117;1247;68550;-79
2022/06/22 11:33:35;;;;;;;4.10;1.60;;;;;;;26.09;26.67;96889.87;110156;1250;59720;-68
2022/06/22 11:36:08;;;;;;;2.50;1.60;;;;;;;26.01;26.29;96887.80;110146;1248;72038;-70
2022/06/22 11:38:58;;;;;;;1.70;1.50;;;;;;;25.77;26.07;96880.45;110184;1248;69186;-74
2022/06/22 11:41:30;;;;;;;1.70;1.50;;;;;;;25.48;26.61;96885.10;110170;1247;68976;-68
2022/06/22 11:44:18;;;;;;;2.50;1.60;;;;;;;25.29;26.81;96888.58;110177;1247;59730;-68
2022/06/22 11:46:52;;;;;;;2.30;1.30;;;;;;;25.40;27.54;96888.11;110215;1247;59701;-68
2022/06/22 11:49:39;;;;;;;6.00;1.80;;;;;;;25.09;27.39;96889.95;110165;1247;71238;-74
2022/06/22 11:52:26;;;;;;;2.40;1.80;;;;;;;24.96;28.72;96895.77;110169;1248;69465;-75
2022/06/22 11:55:17;;;;;;;2.20;1.70;;;;;;;25.45;27.29;96884.20;110191;1247;69054;-75
2022/06/22 11:58:18;;;;;;;1.80;1.30;;;;;;;25.69;26.23;96887.88;110167;1248;59676;-72
2022/06/22 12:00:59;;;;;;;1.60;1.40;;;;;;;26.00;26.82;96891.52;110186;1248;60211;-71
2022/06/22 12:03:48;;;;;;;2.40;1.50;;;;;;;26.12;26.35;96884.27;110176;1248;70656;-76
2022/06/22 12:06:26;;;;;;;1.70;1.50;;;;;;;25.78;27.00;96885.67;110159;1248;68591;-76
2022/06/22 12:09:31;;;;;;;3.10;1.50;;;;;;;25.80;27.40;96891.79;109974;1248;69359;-72
2022/06/22 12:12:29;;;;;;;2.30;1.50;;;;;;;25.85;27.65;96887.17;110054;1248;59743;-73
2022/06/22 12:15:10;;;;;;;;;;;;;;;24.99;27.35;96884.20;110240;1248;59640;-74
2022/06/22 12:17:49;;;;;;;2.30;1.70;;;;;;;25.04;27.67;96885.52;109954;1250;70864;-72
2022/06/22 12:20:52;;;;;;;1.70;1.40;;;;;;;24.94;27.60;96872.00;110200;1247;68677;-77
2022/06/22 12:23:45;;;;;;;2.00;1.30;;;;;;;25.12;28.07;96876.25;110167;1248;68598;-78
2022/06/22 12:26:26;;;;;;;2.80;1.30;;;;;;;25.73;27.24;96876.08;110176;1247;59738;-74
2022/06/22 12:29:11;;;;;;;2.00;1.30;;;;;;;25.85;26.53;96878.16;110187;1247;59746;-75
2022/06/22 12:31:50;;;;;;;2.60;1.30;;;;;;;25.72;26.78;96866.60;110103;1250;70805;-71
2022/06/22 12:34:53;;;;;;;2.30;1.30;;;;;;;25.83;26.43;96868.28;110159;1248;68311;-78
2022/06/22 12:37:26;;;;;;;1.60;1.20;;;;;;;25.87;26.38;96869.36;109855;1251;68453;-80
2022/06/22 12:40:01;;;;;;;1.30;0.90;;;;;;;25.17;26.94;96870.91;110205;1247;59723;-76
2022/06/22 12:42:48;;;;;;;2.40;1.30;;;;;;;25.63;27.52;96869.06;110201;1247;59768;-78
2022/06/22 12:45:28;;;;;;;2.00;1.20;;;;;;;25.80;26.90;96856.91;110170;1247;71380;-78
2022/06/22 12:48:03;;;;;;;;;;;;;;;26.09;27.26;96863.23;110180;1247;67860;-79
2022/06/22 12:50:51;;;;;;;1.60;1.40;;;;;;;26.35;26.64;96868.46;110195;1248;69407;-78
2022/06/22 12:53:32;;;;;;;7.70;1.70;;;;;;;26.53;26.60;96866.80;110198;1248;59679;-77
2022/06/22 12:56:26;;;;;;;1.20;1.10;;;;;;;26.58;26.18;96864.88;110088;1251;59733;-78